Time;durP1;ratioP1;P1;durP2;ratioP2;P2;SDS_P1;SDS_P2;PMS_P1;PMS_P2;Temp;Humidity;BMP_temperature;BMP_pressure;BME280_temperature;BME280_humidity;BME280_pressure;Samples;Min_cycle;Max_cycle;Signal;HPM_P1;HPM_P2
2022/10/22 00:01:47;;;;;;;25.83;17.00;;;;;;;;;;10511732;28;20733;-87
2022/10/22 00:06:49;;;;;;;25.87;17.30;;;;;;;;;;10516887;28;20428;-87
2022/10/22 00:11:52;;;;;;;27.97;18.27;;;;;;;;;;10528783;28;20437;-88
2022/10/22 00:16:55;;;;;;;25.50;17.15;;;;;;;;;;10517366;28;20452;-86
2022/10/22 00:21:57;;;;;;;23.77;16.65;;;;;;;;;;10533088;28;21027;-87
2022/10/22 00:27:01;;;;;;;24.60;16.87;;;;;;;;;;10534048;28;20502;-87
2022/10/22 00:32:06;;;;;;;25.33;16.27;;;;;;;;;;10518872;28;20417;-87
2022/10/22 00:37:08;;;;;;;25.97;16.40;;;;;;;;;;10528916;28;20493;-88
2022/10/22 00:42:16;;;;;;;26.60;16.73;;;;;;;;;;10510256;28;20437;-87
2022/10/22 00:47:19;;;;;;;22.15;16.10;;;;;;;;;;10520270;28;20448;-88
2022/10/22 00:52:22;;;;;;;23.98;15.77;;;;;;;;;;10535489;28;20494;-87
2022/10/22 00:57:26;;;;;;;24.92;15.50;;;;;;;;;;10534241;28;20447;-88
2022/10/22 01:02:28;;;;;;;20.95;15.18;;;;;;;;;;10510677;28;20396;-88
2022/10/22 01:07:30;;;;;;;24.42;14.07;;;;;;;;;;10517462;28;20488;-88
2022/10/22 01:12:42;;;;;;;22.00;13.80;;;;;;;;;;10514020;28;20396;-88
2022/10/22 01:17:52;;;;;;;18.87;13.27;;;;;;;;;;10516185;28;20507;-88
2022/10/22 01:23:11;;;;;;;21.97;13.30;;;;;;;;;;10515336;28;20408;-87
2022/10/22 01:28:25;;;;;;;23.25;12.93;;;;;;;;;;10517833;28;20753;-88
2022/10/22 01:33:30;;;;;;;19.92;13.13;;;;;;;;;;10507999;28;20408;-88
2022/10/22 01:38:33;;;;;;;20.75;12.63;;;;;;;;;;10519998;28;21237;-87
2022/10/22 01:43:35;;;;;;;17.85;11.75;;;;;;;;;;10508624;28;20799;-88
2022/10/22 01:48:52;;;;;;;18.67;11.57;;;;;;;;;;10507955;28;20656;-87
2022/10/22 01:54:00;;;;;;;18.43;11.50;;;;;;;;;;10508224;28;20505;-88
2022/10/22 01:59:08;;;;;;;15.70;11.23;;;;;;;;;;10519143;28;20439;-88
2022/10/22 02:04:17;;;;;;;21.03;12.50;;;;;;;;;;10509141;28;20436;-88
2022/10/22 02:09:21;;;;;;;17.10;12.10;;;;;;;;;;10505620;28;20537;-89
2022/10/22 02:14:27;;;;;;;20.25;12.23;;;;;;;;;;10526553;28;20515;-90
2022/10/22 02:19:39;;;;;;;18.63;12.63;;;;;;;;;;10536192;28;20396;-89
2022/10/22 02:24:42;;;;;;;20.20;12.13;;;;;;;;;;10506791;28;20471;-89
2022/10/22 02:29:49;;;;;;;19.27;12.20;;;;;;;;;;10509859;28;20420;-88
2022/10/22 02:34:54;;;;;;;18.98;12.73;;;;;;;;;;10518670;28;20541;-89
2022/10/22 02:39:56;;;;;;;18.25;11.63;;;;;;;;;;10534125;28;20499;-88
2022/10/22 02:44:58;;;;;;;20.42;12.88;;;;;;;;;;10504174;28;20483;-88
2022/10/22 02:50:01;;;;;;;18.93;12.73;;;;;;;;;;10537277;28;20396;-89
2022/10/22 02:55:04;;;;;;;19.15;13.05;;;;;;;;;;10519381;28;20443;-89
2022/10/22 03:00:07;;;;;;;18.45;13.23;;;;;;;;;;10520349;28;20437;-89
2022/10/22 03:05:11;;;;;;;19.60;12.60;;;;;;;;;;10516510;28;20457;-89
2022/10/22 03:10:13;;;;;;;18.08;13.13;;;;;;;;;;10516192;28;20517;-89
2022/10/22 03:15:14;;;;;;;17.30;12.75;;;;;;;;;;10524830;28;20419;-89
2022/10/22 03:20:18;;;;;;;20.85;13.30;;;;;;;;;;10549799;28;21059;-89
2022/10/22 03:25:22;;;;;;;18.58;12.65;;;;;;;;;;10535857;28;20432;-89
2022/10/22 03:30:24;;;;;;;19.23;12.10;;;;;;;;;;10533620;28;20421;-89
2022/10/22 03:35:28;;;;;;;19.20;12.30;;;;;;;;;;10515935;28;20454;-89
2022/10/22 03:40:30;;;;;;;16.83;11.98;;;;;;;;;;10515375;28;20425;-89
2022/10/22 03:45:32;;;;;;;19.35;12.25;;;;;;;;;;10532864;28;20434;-90
2022/10/22 03:50:35;;;;;;;17.53;12.07;;;;;;;;;;10524799;28;21185;-90
2022/10/22 03:55:38;;;;;;;19.37;12.43;;;;;;;;;;10515917;28;20967;-90
2022/10/22 04:00:40;;;;;;;20.77;12.70;;;;;;;;;;10535976;28;20400;-90
2022/10/22 04:05:43;;;;;;;17.65;12.55;;;;;;;;;;10539460;28;20486;-91
2022/10/22 04:10:51;;;;;;;19.13;12.25;;;;;;;;;;10517259;28;20507;-90
2022/10/22 04:15:53;;;;;;;20.88;12.57;;;;;;;;;;10544139;28;20544;-89
2022/10/22 04:20:56;;;;;;;17.30;12.55;;;;;;;;;;10517202;28;20487;-91
2022/10/22 04:25:59;;;;;;;17.57;12.87;;;;;;;;;;10531317;28;20485;-90
2022/10/22 04:31:01;;;;;;;22.10;13.82;;;;;;;;;;10512157;28;20405;-89
2022/10/22 04:36:08;;;;;;;22.10;13.73;;;;;;;;;;10531887;28;20514;-89
2022/10/22 04:41:13;;;;;;;19.60;13.38;;;;;;;;;;10514983;28;20538;-89
2022/10/22 04:46:17;;;;;;;19.45;13.65;;;;;;;;;;10510997;28;20407;-89
2022/10/22 04:51:23;;;;;;;21.13;12.90;;;;;;;;;;10513203;28;20446;-90
2022/10/22 04:56:26;;;;;;;20.45;12.95;;;;;;;;;;10518066;28;20463;-90
2022/10/22 05:01:30;;;;;;;19.98;12.20;;;;;;;;;;10521279;28;20448;-90
2022/10/22 05:06:35;;;;;;;20.27;12.65;;;;;;;;;;10523294;28;20834;-90
2022/10/22 05:11:40;;;;;;;21.57;13.67;;;;;;;;;;10527960;28;20460;-90
2022/10/22 05:16:42;;;;;;;20.60;13.00;;;;;;;;;;10531400;28;20489;-90
2022/10/22 05:21:45;;;;;;;18.63;12.97;;;;;;;;;;10531289;28;20434;-91
2022/10/22 05:26:49;;;;;;;22.85;13.68;;;;;;;;;;10536449;28;20456;-90
2022/10/22 05:31:52;;;;;;;24.10;12.70;;;;;;;;;;10531503;28;20495;-90
2022/10/22 05:36:55;;;;;;;22.35;13.23;;;;;;;;;;10527191;28;20507;-91
2022/10/22 05:41:57;;;;;;;21.63;12.77;;;;;;;;;;10524623;28;20493;-88
2022/10/22 05:46:59;;;;;;;19.50;12.85;;;;;;;;;;10521273;28;20406;-90
2022/10/22 05:52:02;;;;;;;22.73;13.10;;;;;;;;;;10533489;28;20425;-91
2022/10/22 05:57:04;;;;;;;20.95;13.15;;;;;;;;;;10533380;28;20427;-91
2022/10/22 06:02:06;;;;;;;21.77;12.77;;;;;;;;;;10527090;28;20841;-90
2022/10/22 06:07:15;;;;;;;18.95;12.68;;;;;;;;;;10532368;28;20503;-90
2022/10/22 06:12:17;;;;;;;20.15;12.70;;;;;;;;;;10539336;28;20437;-90
2022/10/22 06:17:19;;;;;;;20.35;12.93;;;;;;;;;;10537810;28;20450;-89
2022/10/22 06:22:22;;;;;;;19.27;13.10;;;;;;;;;;10533190;28;20406;-90
2022/10/22 06:27:24;;;;;;;20.33;12.77;;;;;;;;;;10506431;28;20427;-89
2022/10/22 06:32:26;;;;;;;23.08;13.27;;;;;;;;;;10531905;28;20404;-91
2022/10/22 06:37:29;;;;;;;21.70;13.40;;;;;;;;;;10520805;28;20509;-91
2022/10/22 06:42:31;;;;;;;21.45;13.90;;;;;;;;;;10528099;28;20764;-91
2022/10/22 06:47:33;;;;;;;19.08;12.90;;;;;;;;;;10528463;28;20487;-89
2022/10/22 06:52:36;;;;;;;21.03;12.53;;;;;;;;;;10528479;28;20464;-90
2022/10/22 06:57:38;;;;;;;21.83;12.63;;;;;;;;;;10525551;28;20440;-89
2022/10/22 07:02:41;;;;;;;20.58;12.43;;;;;;;;;;10529397;28;20839;-90
2022/10/22 07:07:44;;;;;;;18.08;11.27;;;;;;;;;;10517055;28;20394;-89
2022/10/22 07:12:46;;;;;;;18.85;12.50;;;;;;;;;;10487477;28;20396;-91
2022/10/22 07:17:50;;;;;;;17.25;11.73;;;;;;;;;;10525182;28;20510;-91
2022/10/22 07:22:53;;;;;;;18.80;11.55;;;;;;;;;;10525722;28;20951;-89
2022/10/22 07:27:55;;;;;;;18.48;12.25;;;;;;;;;;10530162;28;20475;-91
2022/10/22 07:32:57;;;;;;;16.40;11.93;;;;;;;;;;10518972;28;20511;-88
2022/10/22 07:38:01;;;;;;;19.77;12.80;;;;;;;;;;10515674;28;20414;-88
2022/10/22 07:43:04;;;;;;;19.00;12.53;;;;;;;;;;10511777;28;20512;-88
2022/10/22 07:48:06;;;;;;;19.77;12.70;;;;;;;;;;10509614;28;20445;-89
2022/10/22 07:53:10;;;;;;;18.85;13.00;;;;;;;;;;10512928;28;20807;-87
2022/10/22 07:58:12;;;;;;;20.03;13.50;;;;;;;;;;10511698;28;20513;-89
2022/10/22 08:03:15;;;;;;;20.25;13.45;;;;;;;;;;10512715;28;20388;-89
2022/10/22 08:08:19;;;;;;;18.38;12.40;;;;;;;;;;10514787;28;20489;-87
2022/10/22 08:13:22;;;;;;;19.15;12.43;;;;;;;;;;10503936;28;20931;-88
2022/10/22 08:18:24;;;;;;;18.40;12.75;;;;;;;;;;10506555;28;20421;-88
2022/10/22 08:23:27;;;;;;;17.90;12.00;;;;;;;;;;10501935;28;20483;-88
2022/10/22 08:28:31;;;;;;;18.23;11.93;;;;;;;;;;10508047;28;20487;-88
2022/10/22 08:33:33;;;;;;;17.77;11.87;;;;;;;;;;10506877;28;20449;-88
2022/10/22 08:38:37;;;;;;;18.77;12.50;;;;;;;;;;10513148;28;20424;-87
2022/10/22 08:44:02;;;;;;;22.17;12.55;;;;;;;;;;10499256;28;20422;-87
2022/10/22 08:49:09;;;;;;;19.38;12.80;;;;;;;;;;10462633;28;20471;-87
2022/10/22 08:54:32;;;;;;;19.55;12.50;;;;;;;;;;10513103;28;20894;-87
2022/10/22 08:59:42;;;;;;;19.75;12.82;;;;;;;;;;10512556;28;20400;-88
2022/10/22 09:04:51;;;;;;;18.15;11.75;;;;;;;;;;10511685;28;20447;-86
2022/10/22 09:09:57;;;;;;;16.43;10.27;;;;;;;;;;10516297;28;20416;-87
2022/10/22 09:14:59;;;;;;;16.55;10.18;;;;;;;;;;10522219;28;20473;-92
2022/10/22 09:20:11;;;;;;;16.15;9.70;;;;;;;;;;10504139;28;20922;-87
2022/10/22 09:25:26;;;;;;;15.00;9.52;;;;;;;;;;10510764;28;20702;-80
2022/10/22 09:30:30;;;;;;;15.00;8.90;;;;;;;;;;10510522;28;20801;-82
2022/10/22 09:35:35;;;;;;;13.57;8.17;;;;;;;;;;10513614;28;20848;-88
2022/10/22 09:40:45;;;;;;;13.90;7.97;;;;;;;;;;10524677;28;20489;-80
2022/10/22 09:45:49;;;;;;;13.45;7.85;;;;;;;;;;10515669;28;20488;-81
2022/10/22 09:50:57;;;;;;;13.23;7.95;;;;;;;;;;10521229;28;20514;-86
2022/10/22 09:56:01;;;;;;;13.05;8.07;;;;;;;;;;10534104;28;20507;-84
2022/10/22 10:01:10;;;;;;;13.18;8.05;;;;;;;;;;10540536;28;20439;-95
2022/10/22 10:06:12;;;;;;;13.80;7.77;;;;;;;;;;10549875;28;20514;-90
2022/10/22 10:11:21;;;;;;;11.67;8.20;;;;;;;;;;10537436;28;20425;-87
2022/10/22 10:16:38;;;;;;;12.47;7.73;;;;;;;;;;10524552;28;20481;-88
2022/10/22 10:21:48;;;;;;;11.52;7.82;;;;;;;;;;10527309;28;20938;-86
2022/10/22 10:26:58;;;;;;;10.48;7.28;;;;;;;;;;10515548;28;20433;-87
2022/10/22 10:32:12;;;;;;;10.68;7.32;;;;;;;;;;10529179;28;20488;-86
2022/10/22 10:37:21;;;;;;;11.15;8.27;;;;;;;;;;10525617;28;20481;-87
2022/10/22 10:42:34;;;;;;;11.63;8.85;;;;;;;;;;10527891;28;20873;-87
2022/10/22 10:48:01;;;;;;;15.57;10.82;;;;;;;;;;10518747;28;20420;-88
2022/10/22 10:53:12;;;;;;;14.37;9.77;;;;;;;;;;10507797;28;20412;-88
2022/10/22 10:58:24;;;;;;;15.13;10.27;;;;;;;;;;10520323;28;20424;-90
2022/10/22 11:04:01;;;;;;;15.35;9.88;;;;;;;;;;10528246;28;20404;-91
2022/10/22 11:09:10;;;;;;;17.20;9.40;;;;;;;;;;10518983;28;20432;-91
2022/10/22 11:14:19;;;;;;;12.23;9.07;;;;;;;;;;10518523;28;20506;-89
2022/10/22 11:19:26;;;;;;;14.82;9.15;;;;;;;;;;10523034;28;20503;-89
2022/10/22 11:24:33;;;;;;;13.83;9.60;;;;;;;;;;10526654;28;20547;-90
2022/10/22 11:29:41;;;;;;;12.93;9.52;;;;;;;;;;10519961;28;20407;-90
2022/10/22 11:34:47;;;;;;;15.93;10.30;;;;;;;;;;10523778;28;21133;-89
2022/10/22 11:39:53;;;;;;;14.68;9.63;;;;;;;;;;10524046;28;20950;-90
2022/10/22 11:45:04;;;;;;;15.18;9.27;;;;;;;;;;10510734;28;20943;-89
2022/10/22 11:50:21;;;;;;;15.82;9.48;;;;;;;;;;10512837;28;20490;-89
2022/10/22 11:55:33;;;;;;;14.20;9.60;;;;;;;;;;10519309;28;20408;-90
2022/10/22 12:00:46;;;;;;;17.75;10.88;;;;;;;;;;10511650;28;20469;-91
2022/10/22 12:06:07;;;;;;;15.30;11.23;;;;;;;;;;10528817;28;20457;-89
2022/10/22 12:11:20;;;;;;;16.77;10.38;;;;;;;;;;10509039;28;20802;-90
2022/10/22 12:16:25;;;;;;;16.05;10.75;;;;;;;;;;10510306;28;20416;-91
2022/10/22 12:21:28;;;;;;;14.63;10.07;;;;;;;;;;10522994;28;20424;-89
2022/10/22 12:26:33;;;;;;;14.73;9.95;;;;;;;;;;10512474;28;20506;-89
2022/10/22 12:31:38;;;;;;;13.55;9.07;;;;;;;;;;10511464;28;20423;-90
2022/10/22 12:36:40;;;;;;;13.60;9.57;;;;;;;;;;10517496;28;21314;-89
2022/10/22 12:41:43;;;;;;;15.50;9.43;;;;;;;;;;10514095;28;21039;-88
2022/10/22 12:46:49;;;;;;;13.50;9.33;;;;;;;;;;10509144;28;20821;-88
2022/10/22 12:51:51;;;;;;;14.57;10.30;;;;;;;;;;10512469;28;20424;-90
2022/10/22 12:56:54;;;;;;;15.57;9.73;;;;;;;;;;10510854;28;20557;-88
2022/10/22 13:01:58;;;;;;;15.83;9.73;;;;;;;;;;10517361;28;20401;-89
2022/10/22 13:07:17;;;;;;;13.77;9.57;;;;;;;;;;10519635;28;20420;-89
2022/10/22 13:12:25;;;;;;;14.90;10.90;;;;;;;;;;10528744;28;20903;-90
2022/10/22 13:17:41;;;;;;;15.33;10.60;;;;;;;;;;10514469;28;20449;-90
2022/10/22 13:22:53;;;;;;;15.93;10.80;;;;;;;;;;10510134;28;20411;-84
2022/10/22 13:27:57;;;;;;;15.82;10.65;;;;;;;;;;10516814;28;20760;-88
2022/10/22 13:33:05;;;;;;;16.95;11.40;;;;;;;;;;10517273;28;20443;-89
2022/10/22 13:38:15;;;;;;;15.43;10.35;;;;;;;;;;10510172;28;20423;-89
2022/10/22 13:43:18;;;;;;;16.38;9.73;;;;;;;;;;10508559;28;20869;-88
2022/10/22 13:48:24;;;;;;;10.45;8.48;;;;;;;;;;10503878;28;20487;-87
2022/10/22 13:53:27;;;;;;;8.60;5.90;;;;;;;;;;10482846;28;20475;-88
2022/10/22 13:58:29;;;;;;;9.25;6.45;;;;;;;;;;10473676;28;20420;-88
2022/10/22 14:03:36;;;;;;;9.60;6.60;;;;;;;;;;10476763;28;20521;-88
2022/10/22 14:08:37;;;;;;;7.90;6.03;;;;;;;;;;10478822;28;20430;-86
2022/10/22 14:13:40;;;;;;;7.72;5.82;;;;;;;;;;10481245;28;20509;-89
2022/10/22 14:18:43;;;;;;;8.15;5.65;;;;;;;;;;10487244;28;20428;-88
2022/10/22 14:23:46;;;;;;;7.43;5.40;;;;;;;;;;10492415;28;21107;-88
2022/10/22 14:28:48;;;;;;;7.07;4.78;;;;;;;;;;10495000;28;20512;-87
2022/10/22 14:33:52;;;;;;;5.05;3.00;;;;;;;;;;10496125;28;20423;-88
2022/10/22 14:38:54;;;;;;;4.30;2.80;;;;;;;;;;10487824;28;20562;-87
2022/10/22 14:43:55;;;;;;;5.07;3.08;;;;;;;;;;10498590;28;20426;-88
2022/10/22 14:48:59;;;;;;;4.13;2.45;;;;;;;;;;10511265;28;20491;-86
2022/10/22 14:54:03;;;;;;;5.07;2.90;;;;;;;;;;10512957;28;20408;-86
2022/10/22 14:59:05;;;;;;;2.50;2.20;;;;;;;;;;10512301;28;20761;-87
2022/10/22 15:04:08;;;;;;;5.95;2.47;;;;;;;;;;10513912;28;20418;-89
2022/10/22 15:09:11;;;;;;;5.40;2.30;;;;;;;;;;10515634;28;20495;-90
2022/10/22 15:14:14;;;;;;;3.53;2.53;;;;;;;;;;10514267;28;20574;-87
2022/10/22 15:19:17;;;;;;;4.57;2.40;;;;;;;;;;10520788;28;20507;-89
2022/10/22 15:24:19;;;;;;;3.85;2.00;;;;;;;;;;10514344;28;20423;-87
2022/10/22 15:29:21;;;;;;;4.40;2.50;;;;;;;;;;10519518;28;20392;-90
2022/10/22 15:34:27;;;;;;;5.13;3.00;;;;;;;;;;10523263;28;20418;-88
2022/10/22 15:39:30;;;;;;;5.55;3.22;;;;;;;;;;10523442;28;20481;-89
2022/10/22 15:44:33;;;;;;;6.43;3.33;;;;;;;;;;10530054;28;20978;-88
2022/10/22 16:05:10;;;;;;;6.45;3.78;;;;;;;;;;10492263;28;20415;-96
2022/10/22 16:10:13;;;;;;;6.63;3.73;;;;;;;;;;10518946;28;20412;-96
2022/10/22 16:15:16;;;;;;;5.13;3.70;;;;;;;;;;10500210;28;20431;-96
2022/10/22 16:20:19;;;;;;;7.38;4.05;;;;;;;;;;10488695;28;20435;-96
2022/10/22 16:25:21;;;;;;;6.17;3.70;;;;;;;;;;10487471;28;20407;-96
2022/10/22 16:30:24;;;;;;;6.60;3.78;;;;;;;;;;10507300;28;20439;-96
2022/10/22 17:08:01;;;;;;;6.93;4.68;;;;;;;;;;10489181;28;20404;-96
2022/10/22 17:13:06;;;;;;;5.70;4.40;;;;;;;;;;10447151;28;20396;-96
2022/10/22 17:18:10;;;;;;;6.57;4.40;;;;;;;;;;10470676;28;20420;-96
2022/10/22 17:23:17;;;;;;;8.25;4.45;;;;;;;;;;10467021;28;20502;-96
2022/10/22 17:28:35;;;;;;;6.03;4.40;;;;;;;;;;10480055;28;20471;-96
2022/10/22 17:33:52;;;;;;;6.53;4.43;;;;;;;;;;10472960;28;20571;-96
2022/10/22 17:38:57;;;;;;;9.57;5.10;;;;;;;;;;10484108;28;20415;-96
2022/10/22 17:44:07;;;;;;;7.90;5.30;;;;;;;;;;10487702;28;20473;-96
2022/10/22 17:49:22;;;;;;;7.80;5.53;;;;;;;;;;10472070;28;20405;-96
2022/10/22 18:40:36;;;;;;;10.85;9.10;;;;;;;;;;10475319;28;20430;-96
2022/10/22 18:45:49;;;;;;;16.83;11.77;;;;;;;;;;10434566;28;20421;-96
2022/10/22 18:50:59;;;;;;;11.38;8.75;;;;;;;;;;10463424;28;20432;-96
2022/10/22 18:56:04;;;;;;;9.95;7.35;;;;;;;;;;10448735;28;20397;-95
2022/10/22 19:01:09;;;;;;;11.88;7.40;;;;;;;;;;10447907;28;20464;-95
2022/10/22 19:06:13;;;;;;;9.00;6.50;;;;;;;;;;10431885;28;20402;-91
2022/10/22 19:11:22;;;;;;;7.60;5.77;;;;;;;;;;10437628;28;20482;-93
2022/10/22 19:16:25;;;;;;;6.90;4.90;;;;;;;;;;10399566;28;20491;-86
2022/10/22 20:19:39;;;;;;;4.25;3.20;;;;;;;;;;10382101;28;20430;-96
2022/10/22 20:24:45;;;;;;;5.80;3.43;;;;;;;;;;10390824;28;20425;-96
2022/10/22 20:29:49;;;;;;;5.83;3.80;;;;;;;;;;10373656;28;20623;-96
2022/10/22 20:34:59;;;;;;;4.20;3.50;;;;;;;;;;10383690;28;20411;-96
2022/10/22 20:40:09;;;;;;;4.75;3.95;;;;;;;;;;10411940;28;20766;-96
2022/10/22 20:45:13;;;;;;;6.20;4.15;;;;;;;;;;10367561;28;20411;-96
2022/10/22 20:50:31;;;;;;;4.77;4.20;;;;;;;;;;10365762;28;20410;-95
2022/10/22 20:55:36;;;;;;;7.90;4.60;;;;;;;;;;10411146;28;20413;-96
2022/10/22 21:00:52;;;;;;;5.50;4.38;;;;;;;;;;10380248;28;20511;-96
2022/10/22 21:05:59;;;;;;;4.93;4.15;;;;;;;;;;10396441;28;20422;-96
2022/10/22 21:11:01;;;;;;;6.32;4.53;;;;;;;;;;10376850;28;20415;-96
2022/10/22 21:16:12;;;;;;;5.82;4.55;;;;;;;;;;10384959;28;20422;-96
2022/10/22 21:21:21;;;;;;;6.25;4.85;;;;;;;;;;10395682;28;20411;-96
2022/10/22 21:26:31;;;;;;;8.02;5.28;;;;;;;;;;10366811;28;20429;-96
2022/10/22 21:31:42;;;;;;;7.88;5.10;;;;;;;;;;10404031;28;20506;-96
2022/10/22 21:42:51;;;;;;;8.43;5.55;;;;;;;;;;10392501;28;20474;-96
2022/10/22 21:48:00;;;;;;;8.50;5.57;;;;;;;;;;10407693;28;20442;-96
2022/10/22 21:53:23;;;;;;;8.07;5.00;;;;;;;;;;10400049;28;20442;-96
2022/10/22 21:58:27;;;;;;;6.07;4.68;;;;;;;;;;10409153;28;20525;-96
2022/10/22 22:03:33;;;;;;;8.17;4.67;;;;;;;;;;10424259;28;20407;-96
2022/10/22 22:14:29;;;;;;;4.55;3.85;;;;;;;;;;10406096;28;20411;-96
2022/10/22 22:19:33;;;;;;;5.50;3.90;;;;;;;;;;10406990;28;20933;-96
2022/10/22 22:24:38;;;;;;;5.68;3.78;;;;;;;;;;10392993;28;20440;-96
2022/10/22 22:30:08;;;;;;;4.93;3.53;;;;;;;;;;10403147;28;20400;-96
2022/10/22 22:35:13;;;;;;;4.97;3.35;;;;;;;;;;10382023;28;20419;-96
2022/10/22 22:52:05;;;;;;;4.82;3.47;;;;;;;;;;2463373;23;20920;-96
2022/10/22 22:57:16;;;;;;;4.28;3.38;;;;;;;;;;10352062;28;20478;-96
2022/10/22 23:02:20;;;;;;;4.97;3.80;;;;;;;;;;10349832;28;20898;-96
2022/10/22 23:07:27;;;;;;;4.38;3.75;;;;;;;;;;10340976;28;20418;-96
2022/10/22 23:12:33;;;;;;;4.18;3.78;;;;;;;;;;10345298;28;20490;-96
2022/10/22 23:17:37;;;;;;;4.55;3.70;;;;;;;;;;10346675;28;20498;-96
2022/10/22 23:22:40;;;;;;;6.33;4.43;;;;;;;;;;10341876;28;20408;-96
2022/10/22 23:39:18;;;;;;;11.73;4.90;;;;;;;;;;10360978;28;20429;-96
2022/10/22 23:49:59;;;;;;;5.73;4.00;;;;;;;;;;10328777;28;20407;-96
